sensor_id;sensor_type;location;lat;lon;timestamp;P1;durP1;ratioP1;P2;durP2;ratioP2
77061;SDS011;65989;51.686;5.138;2023-04-15T00:02:25;10.38;;;4.88;;
77061;SDS011;65989;51.686;5.138;2023-04-15T00:04:50;14.57;;;5.50;;
77061;SDS011;65989;51.686;5.138;2023-04-15T00:07:15;13.50;;;5.03;;
77061;SDS011;65989;51.686;5.138;2023-04-15T00:09:42;12.23;;;4.97;;
77061;SDS011;65989;51.686;5.138;2023-04-15T00:12:08;13.57;;;5.30;;
77061;SDS011;65989;51.686;5.138;2023-04-15T00:14:35;13.57;;;5.53;;
77061;SDS011;65989;51.686;5.138;2023-04-15T00:17:01;13.17;;;5.13;;
77061;SDS011;65989;51.686;5.138;2023-04-15T00:19:27;11.13;;;5.13;;
77061;SDS011;65989;51.686;5.138;2023-04-15T00:21:53;10.32;;;5.32;;
77061;SDS011;65989;51.686;5.138;2023-04-15T00:24:19;12.50;;;5.43;;
77061;SDS011;65989;51.686;5.138;2023-04-15T00:26:44;13.10;;;5.97;;
77061;SDS011;65989;51.686;5.138;2023-04-15T00:29:09;12.77;;;5.63;;
77061;SDS011;65989;51.686;5.138;2023-04-15T00:31:35;15.73;;;5.33;;
77061;SDS011;65989;51.686;5.138;2023-04-15T00:34:00;10.35;;;4.82;;
77061;SDS011;65989;51.686;5.138;2023-04-15T00:36:26;13.90;;;5.40;;
77061;SDS011;65989;51.686;5.138;2023-04-15T00:38:52;11.25;;;5.53;;
77061;SDS011;65989;51.686;5.138;2023-04-15T00:41:17;11.90;;;5.27;;
77061;SDS011;65989;51.686;5.138;2023-04-15T00:43:43;15.68;;;5.38;;
77061;SDS011;65989;51.686;5.138;2023-04-15T00:46:08;9.97;;;5.27;;
77061;SDS011;65989;51.686;5.138;2023-04-15T00:48:36;12.40;;;5.53;;
77061;SDS011;65989;51.686;5.138;2023-04-15T00:51:03;12.73;;;5.70;;
77061;SDS011;65989;51.686;5.138;2023-04-15T00:53:28;10.37;;;5.13;;
77061;SDS011;65989;51.686;5.138;2023-04-15T00:55:54;11.67;;;5.40;;
77061;SDS011;65989;51.686;5.138;2023-04-15T00:58:20;11.20;;;5.45;;
77061;SDS011;65989;51.686;5.138;2023-04-15T01:00:45;12.20;;;5.45;;
77061;SDS011;65989;51.686;5.138;2023-04-15T01:03:11;10.87;;;5.40;;
77061;SDS011;65989;51.686;5.138;2023-04-15T01:05:37;12.98;;;5.85;;
77061;SDS011;65989;51.686;5.138;2023-04-15T01:08:03;10.80;;;5.20;;
77061;SDS011;65989;51.686;5.138;2023-04-15T01:10:29;14.10;;;6.30;;
77061;SDS011;65989;51.686;5.138;2023-04-15T01:12:55;13.73;;;5.85;;
77061;SDS011;65989;51.686;5.138;2023-04-15T01:15:21;11.63;;;5.57;;
77061;SDS011;65989;51.686;5.138;2023-04-15T01:17:47;9.63;;;5.60;;
77061;SDS011;65989;51.686;5.138;2023-04-15T01:20:12;11.27;;;5.10;;
77061;SDS011;65989;51.686;5.138;2023-04-15T01:22:40;10.05;;;5.68;;
77061;SDS011;65989;51.686;5.138;2023-04-15T01:25:08;13.73;;;5.75;;
77061;SDS011;65989;51.686;5.138;2023-04-15T01:27:36;12.00;;;5.53;;
77061;SDS011;65989;51.686;5.138;2023-04-15T01:30:05;11.90;;;5.77;;
77061;SDS011;65989;51.686;5.138;2023-04-15T01:32:31;10.23;;;5.55;;
77061;SDS011;65989;51.686;5.138;2023-04-15T01:34:57;10.23;;;5.63;;
77061;SDS011;65989;51.686;5.138;2023-04-15T01:37:23;11.57;;;5.73;;
77061;SDS011;65989;51.686;5.138;2023-04-15T01:39:49;17.63;;;5.90;;
77061;SDS011;65989;51.686;5.138;2023-04-15T01:42:14;14.37;;;6.00;;
77061;SDS011;65989;51.686;5.138;2023-04-15T01:44:40;10.53;;;6.37;;
77061;SDS011;65989;51.686;5.138;2023-04-15T01:47:05;10.67;;;5.93;;
77061;SDS011;65989;51.686;5.138;2023-04-15T01:49:31;13.32;;;6.10;;
77061;SDS011;65989;51.686;5.138;2023-04-15T01:51:56;13.13;;;6.33;;
77061;SDS011;65989;51.686;5.138;2023-04-15T01:54:22;11.17;;;6.43;;
77061;SDS011;65989;51.686;5.138;2023-04-15T01:56:47;12.00;;;6.23;;
77061;SDS011;65989;51.686;5.138;2023-04-15T01:59:12;13.50;;;6.13;;
77061;SDS011;65989;51.686;5.138;2023-04-15T02:01:38;11.67;;;6.33;;
77061;SDS011;65989;51.686;5.138;2023-04-15T02:04:03;13.20;;;6.20;;
77061;SDS011;65989;51.686;5.138;2023-04-15T02:06:29;13.88;;;5.97;;
77061;SDS011;65989;51.686;5.138;2023-04-15T02:08:54;12.43;;;6.50;;
77061;SDS011;65989;51.686;5.138;2023-04-15T02:11:20;11.03;;;6.33;;
77061;SDS011;65989;51.686;5.138;2023-04-15T02:13:46;11.20;;;6.32;;
77061;SDS011;65989;51.686;5.138;2023-04-15T02:16:16;11.60;;;6.67;;
77061;SDS011;65989;51.686;5.138;2023-04-15T02:18:45;14.60;;;6.53;;
77061;SDS011;65989;51.686;5.138;2023-04-15T02:21:11;10.60;;;6.25;;
77061;SDS011;65989;51.686;5.138;2023-04-15T02:23:36;10.47;;;6.30;;
77061;SDS011;65989;51.686;5.138;2023-04-15T02:26:02;17.40;;;6.70;;
77061;SDS011;65989;51.686;5.138;2023-04-15T02:28:27;13.90;;;6.63;;
77061;SDS011;65989;51.686;5.138;2023-04-15T02:30:52;13.37;;;6.73;;
77061;SDS011;65989;51.686;5.138;2023-04-15T02:33:20;13.15;;;6.70;;
77061;SDS011;65989;51.686;5.138;2023-04-15T02:35:45;12.00;;;6.80;;
77061;SDS011;65989;51.686;5.138;2023-04-15T02:38:11;14.68;;;7.05;;
77061;SDS011;65989;51.686;5.138;2023-04-15T02:40:38;12.15;;;7.60;;
77061;SDS011;65989;51.686;5.138;2023-04-15T02:43:03;14.70;;;7.00;;
77061;SDS011;65989;51.686;5.138;2023-04-15T02:45:30;14.85;;;7.65;;
77061;SDS011;65989;51.686;5.138;2023-04-15T02:47:56;15.33;;;8.07;;
77061;SDS011;65989;51.686;5.138;2023-04-15T02:50:22;12.27;;;7.55;;
77061;SDS011;65989;51.686;5.138;2023-04-15T02:52:48;15.37;;;8.00;;
77061;SDS011;65989;51.686;5.138;2023-04-15T02:55:13;13.07;;;7.90;;
77061;SDS011;65989;51.686;5.138;2023-04-15T02:57:39;14.03;;;8.13;;
77061;SDS011;65989;51.686;5.138;2023-04-15T03:00:05;13.15;;;7.72;;
77061;SDS011;65989;51.686;5.138;2023-04-15T03:02:34;17.00;;;8.25;;
77061;SDS011;65989;51.686;5.138;2023-04-15T03:05:01;12.60;;;7.60;;
77061;SDS011;65989;51.686;5.138;2023-04-15T03:07:26;15.67;;;8.27;;
77061;SDS011;65989;51.686;5.138;2023-04-15T03:09:52;15.07;;;8.20;;
77061;SDS011;65989;51.686;5.138;2023-04-15T03:12:17;13.40;;;8.27;;
77061;SDS011;65989;51.686;5.138;2023-04-15T03:14:42;16.03;;;7.97;;
77061;SDS011;65989;51.686;5.138;2023-04-15T03:17:08;14.63;;;8.90;;
77061;SDS011;65989;51.686;5.138;2023-04-15T03:19:33;14.13;;;8.23;;
77061;SDS011;65989;51.686;5.138;2023-04-15T03:21:58;12.67;;;8.13;;
77061;SDS011;65989;51.686;5.138;2023-04-15T03:24:24;16.00;;;8.63;;
77061;SDS011;65989;51.686;5.138;2023-04-15T03:26:50;16.13;;;8.30;;
77061;SDS011;65989;51.686;5.138;2023-04-15T03:29:15;14.97;;;8.47;;
77061;SDS011;65989;51.686;5.138;2023-04-15T03:31:40;13.40;;;8.00;;
77061;SDS011;65989;51.686;5.138;2023-04-15T03:34:06;15.50;;;9.32;;
77061;SDS011;65989;51.686;5.138;2023-04-15T03:36:31;17.87;;;9.07;;
77061;SDS011;65989;51.686;5.138;2023-04-15T03:38:57;12.80;;;8.70;;
77061;SDS011;65989;51.686;5.138;2023-04-15T03:41:23;18.00;;;8.93;;
77061;SDS011;65989;51.686;5.138;2023-04-15T03:43:48;14.47;;;8.97;;
77061;SDS011;65989;51.686;5.138;2023-04-15T03:46:16;13.15;;;8.43;;
77061;SDS011;65989;51.686;5.138;2023-04-15T03:48:42;15.30;;;9.20;;
77061;SDS011;65989;51.686;5.138;2023-04-15T03:51:07;13.83;;;8.53;;
77061;SDS011;65989;51.686;5.138;2023-04-15T03:53:32;18.13;;;8.63;;
77061;SDS011;65989;51.686;5.138;2023-04-15T03:55:58;14.23;;;7.65;;
77061;SDS011;65989;51.686;5.138;2023-04-15T03:58:23;15.83;;;8.20;;
77061;SDS011;65989;51.686;5.138;2023-04-15T04:00:49;16.93;;;8.70;;
77061;SDS011;65989;51.686;5.138;2023-04-15T04:03:14;13.87;;;8.07;;
77061;SDS011;65989;51.686;5.138;2023-04-15T04:05:39;17.60;;;8.77;;
77061;SDS011;65989;51.686;5.138;2023-04-15T04:08:05;15.27;;;8.43;;
77061;SDS011;65989;51.686;5.138;2023-04-15T04:10:31;16.48;;;8.57;;
77061;SDS011;65989;51.686;5.138;2023-04-15T04:12:56;13.23;;;8.10;;
77061;SDS011;65989;51.686;5.138;2023-04-15T04:15:22;15.67;;;8.40;;
77061;SDS011;65989;51.686;5.138;2023-04-15T04:17:47;16.17;;;9.00;;
77061;SDS011;65989;51.686;5.138;2023-04-15T04:20:13;16.63;;;8.27;;
77061;SDS011;65989;51.686;5.138;2023-04-15T04:22:38;16.00;;;9.30;;
77061;SDS011;65989;51.686;5.138;2023-04-15T04:25:05;17.17;;;9.25;;
77061;SDS011;65989;51.686;5.138;2023-04-15T04:27:32;14.75;;;8.73;;
77061;SDS011;65989;51.686;5.138;2023-04-15T04:29:57;16.57;;;8.47;;
77061;SDS011;65989;51.686;5.138;2023-04-15T04:32:23;14.23;;;9.13;;
77061;SDS011;65989;51.686;5.138;2023-04-15T04:34:48;13.13;;;8.03;;
77061;SDS011;65989;51.686;5.138;2023-04-15T04:37:14;15.23;;;9.13;;
77061;SDS011;65989;51.686;5.138;2023-04-15T04:39:39;14.25;;;8.57;;
77061;SDS011;65989;51.686;5.138;2023-04-15T04:42:05;17.00;;;8.47;;
77061;SDS011;65989;51.686;5.138;2023-04-15T04:44:30;14.43;;;9.20;;
77061;SDS011;65989;51.686;5.138;2023-04-15T04:46:55;15.45;;;8.98;;
77061;SDS011;65989;51.686;5.138;2023-04-15T04:49:21;15.67;;;8.97;;
77061;SDS011;65989;51.686;5.138;2023-04-15T04:51:46;14.27;;;8.33;;
77061;SDS011;65989;51.686;5.138;2023-04-15T04:54:13;16.85;;;8.73;;
77061;SDS011;65989;51.686;5.138;2023-04-15T04:56:38;14.20;;;8.37;;
77061;SDS011;65989;51.686;5.138;2023-04-15T04:59:04;14.50;;;8.50;;
77061;SDS011;65989;51.686;5.138;2023-04-15T05:01:29;15.50;;;8.55;;
77061;SDS011;65989;51.686;5.138;2023-04-15T05:03:55;14.07;;;8.87;;
77061;SDS011;65989;51.686;5.138;2023-04-15T05:06:20;13.07;;;8.57;;
77061;SDS011;65989;51.686;5.138;2023-04-15T05:08:46;16.73;;;8.80;;
77061;SDS011;65989;51.686;5.138;2023-04-15T05:11:12;19.60;;;8.43;;
77061;SDS011;65989;51.686;5.138;2023-04-15T05:13:37;14.33;;;8.10;;
77061;SDS011;65989;51.686;5.138;2023-04-15T05:16:06;15.90;;;8.77;;
77061;SDS011;65989;51.686;5.138;2023-04-15T05:18:31;14.88;;;9.00;;
77061;SDS011;65989;51.686;5.138;2023-04-15T05:20:57;14.60;;;8.00;;
77061;SDS011;65989;51.686;5.138;2023-04-15T05:23:23;13.00;;;7.80;;
77061;SDS011;65989;51.686;5.138;2023-04-15T05:25:49;13.77;;;8.10;;
77061;SDS011;65989;51.686;5.138;2023-04-15T05:28:14;12.00;;;8.20;;
77061;SDS011;65989;51.686;5.138;2023-04-15T05:30:39;13.27;;;7.47;;
77061;SDS011;65989;51.686;5.138;2023-04-15T05:33:05;12.50;;;8.32;;
77061;SDS011;65989;51.686;5.138;2023-04-15T05:35:30;14.90;;;8.33;;
77061;SDS011;65989;51.686;5.138;2023-04-15T05:37:56;14.83;;;8.20;;
77061;SDS011;65989;51.686;5.138;2023-04-15T05:40:21;16.97;;;7.60;;
77061;SDS011;65989;51.686;5.138;2023-04-15T05:42:47;12.98;;;7.78;;
77061;SDS011;65989;51.686;5.138;2023-04-15T05:45:12;13.27;;;7.97;;
77061;SDS011;65989;51.686;5.138;2023-04-15T05:47:38;13.77;;;8.07;;
77061;SDS011;65989;51.686;5.138;2023-04-15T05:50:03;12.87;;;7.77;;
77061;SDS011;65989;51.686;5.138;2023-04-15T05:52:30;13.23;;;8.15;;
77061;SDS011;65989;51.686;5.138;2023-04-15T05:54:55;12.90;;;7.70;;
77061;SDS011;65989;51.686;5.138;2023-04-15T05:57:21;15.53;;;7.80;;
77061;SDS011;65989;51.686;5.138;2023-04-15T05:59:47;12.77;;;7.70;;
77061;SDS011;65989;51.686;5.138;2023-04-15T06:02:13;11.67;;;7.80;;
77061;SDS011;65989;51.686;5.138;2023-04-15T06:04:38;11.40;;;7.47;;
77061;SDS011;65989;51.686;5.138;2023-04-15T06:07:04;13.03;;;7.93;;
77061;SDS011;65989;51.686;5.138;2023-04-15T06:09:29;12.68;;;7.68;;
77061;SDS011;65989;51.686;5.138;2023-04-15T06:11:55;11.97;;;7.47;;
77061;SDS011;65989;51.686;5.138;2023-04-15T06:14:21;18.15;;;7.00;;
77061;SDS011;65989;51.686;5.138;2023-04-15T06:16:47;12.03;;;6.87;;
77061;SDS011;65989;51.686;5.138;2023-04-15T06:19:12;14.57;;;7.63;;
77061;SDS011;65989;51.686;5.138;2023-04-15T06:21:38;12.10;;;7.23;;
77061;SDS011;65989;51.686;5.138;2023-04-15T06:24:04;11.93;;;7.60;;
77061;SDS011;65989;51.686;5.138;2023-04-15T06:26:29;16.55;;;7.90;;
77061;SDS011;65989;51.686;5.138;2023-04-15T06:28:55;12.20;;;7.50;;
77061;SDS011;65989;51.686;5.138;2023-04-15T06:31:21;11.23;;;7.50;;
77061;SDS011;65989;51.686;5.138;2023-04-15T06:33:46;11.27;;;7.53;;
77061;SDS011;65989;51.686;5.138;2023-04-15T06:36:14;13.57;;;8.13;;
77061;SDS011;65989;51.686;5.138;2023-04-15T06:38:39;14.68;;;8.15;;
77061;SDS011;65989;51.686;5.138;2023-04-15T06:41:05;13.00;;;7.68;;
77061;SDS011;65989;51.686;5.138;2023-04-15T06:43:30;11.50;;;7.40;;
77061;SDS011;65989;51.686;5.138;2023-04-15T06:45:56;11.10;;;7.40;;
77061;SDS011;65989;51.686;5.138;2023-04-15T06:48:22;12.38;;;7.93;;
77061;SDS011;65989;51.686;5.138;2023-04-15T06:50:48;14.60;;;7.97;;
77061;SDS011;65989;51.686;5.138;2023-04-15T06:53:14;12.83;;;7.90;;
77061;SDS011;65989;51.686;5.138;2023-04-15T06:55:39;13.05;;;7.40;;
77061;SDS011;65989;51.686;5.138;2023-04-15T06:58:05;11.33;;;7.27;;
77061;SDS011;65989;51.686;5.138;2023-04-15T07:00:31;11.93;;;7.53;;
77061;SDS011;65989;51.686;5.138;2023-04-15T07:02:58;12.30;;;7.15;;
77061;SDS011;65989;51.686;5.138;2023-04-15T07:05:24;12.70;;;7.67;;
77061;SDS011;65989;51.686;5.138;2023-04-15T07:07:50;11.18;;;7.60;;
77061;SDS011;65989;51.686;5.138;2023-04-15T07:10:15;13.37;;;7.77;;
77061;SDS011;65989;51.686;5.138;2023-04-15T07:12:41;14.90;;;7.70;;
77061;SDS011;65989;51.686;5.138;2023-04-15T07:15:06;11.83;;;7.63;;
77061;SDS011;65989;51.686;5.138;2023-04-15T07:17:32;13.07;;;7.50;;
77061;SDS011;65989;51.686;5.138;2023-04-15T07:19:58;14.05;;;8.63;;
77061;SDS011;65989;51.686;5.138;2023-04-15T07:22:23;13.60;;;8.53;;
77061;SDS011;65989;51.686;5.138;2023-04-15T07:24:49;11.37;;;7.07;;
77061;SDS011;65989;51.686;5.138;2023-04-15T07:27:14;14.70;;;7.72;;
77061;SDS011;65989;51.686;5.138;2023-04-15T07:29:40;12.77;;;8.40;;
77061;SDS011;65989;51.686;5.138;2023-04-15T07:32:06;12.43;;;8.20;;
77061;SDS011;65989;51.686;5.138;2023-04-15T07:34:31;11.63;;;7.50;;
77061;SDS011;65989;51.686;5.138;2023-04-15T07:36:57;13.50;;;7.60;;
77061;SDS011;65989;51.686;5.138;2023-04-15T07:39:22;13.00;;;7.90;;
77061;SDS011;65989;51.686;5.138;2023-04-15T07:41:47;14.70;;;7.00;;
77061;SDS011;65989;51.686;5.138;2023-04-15T07:44:13;12.50;;;8.00;;
77061;SDS011;65989;51.686;5.138;2023-04-15T07:46:38;10.57;;;6.63;;
77061;SDS011;65989;51.686;5.138;2023-04-15T07:49:04;11.18;;;7.22;;
77061;SDS011;65989;51.686;5.138;2023-04-15T07:51:29;13.13;;;7.87;;
77061;SDS011;65989;51.686;5.138;2023-04-15T07:53:58;12.68;;;7.72;;
77061;SDS011;65989;51.686;5.138;2023-04-15T07:56:23;12.63;;;7.70;;
77061;SDS011;65989;51.686;5.138;2023-04-15T07:58:50;17.08;;;7.80;;
77061;SDS011;65989;51.686;5.138;2023-04-15T08:01:15;12.17;;;7.77;;
77061;SDS011;65989;51.686;5.138;2023-04-15T08:03:41;12.52;;;6.63;;
77061;SDS011;65989;51.686;5.138;2023-04-15T08:06:07;11.27;;;6.73;;
77061;SDS011;65989;51.686;5.138;2023-04-15T08:08:32;13.30;;;7.00;;
77061;SDS011;65989;51.686;5.138;2023-04-15T08:10:57;11.60;;;7.30;;
77061;SDS011;65989;51.686;5.138;2023-04-15T08:13:23;12.40;;;6.90;;
77061;SDS011;65989;51.686;5.138;2023-04-15T08:15:52;11.87;;;7.13;;
77061;SDS011;65989;51.686;5.138;2023-04-15T08:18:50;10.82;;;6.75;;
77061;SDS011;65989;51.686;5.138;2023-04-15T08:21:17;13.48;;;6.50;;
77061;SDS011;65989;51.686;5.138;2023-04-15T08:23:44;11.83;;;7.00;;
77061;SDS011;65989;51.686;5.138;2023-04-15T08:26:11;11.50;;;6.65;;
77061;SDS011;65989;51.686;5.138;2023-04-15T08:28:37;12.10;;;7.03;;
77061;SDS011;65989;51.686;5.138;2023-04-15T08:31:03;29.13;;;9.10;;
77061;SDS011;65989;51.686;5.138;2023-04-15T08:33:29;11.13;;;6.90;;
77061;SDS011;65989;51.686;5.138;2023-04-15T08:35:54;40.23;;;8.90;;
77061;SDS011;65989;51.686;5.138;2023-04-15T08:38:20;9.50;;;5.95;;
77061;SDS011;65989;51.686;5.138;2023-04-15T08:40:46;9.90;;;6.17;;
77061;SDS011;65989;51.686;5.138;2023-04-15T08:43:17;13.00;;;5.95;;
77061;SDS011;65989;51.686;5.138;2023-04-15T08:45:50;8.63;;;5.43;;
77061;SDS011;65989;51.686;5.138;2023-04-15T08:48:17;9.50;;;5.63;;
77061;SDS011;65989;51.686;5.138;2023-04-15T08:50:43;13.07;;;6.47;;
77061;SDS011;65989;51.686;5.138;2023-04-15T08:53:12;11.43;;;6.50;;
77061;SDS011;65989;51.686;5.138;2023-04-15T08:55:41;12.80;;;6.85;;
77061;SDS011;65989;51.686;5.138;2023-04-15T08:58:09;13.17;;;6.43;;
77061;SDS011;65989;51.686;5.138;2023-04-15T09:00:35;10.35;;;5.90;;
77061;SDS011;65989;51.686;5.138;2023-04-15T09:03:02;10.48;;;5.97;;
77061;SDS011;65989;51.686;5.138;2023-04-15T09:05:30;10.15;;;4.72;;
77061;SDS011;65989;51.686;5.138;2023-04-15T09:07:57;8.95;;;4.75;;
77061;SDS011;65989;51.686;5.138;2023-04-15T09:10:23;8.60;;;4.03;;
77061;SDS011;65989;51.686;5.138;2023-04-15T09:12:48;10.67;;;4.87;;
77061;SDS011;65989;51.686;5.138;2023-04-15T09:15:13;7.13;;;4.03;;
77061;SDS011;65989;51.686;5.138;2023-04-15T09:17:43;8.18;;;4.38;;
77061;SDS011;65989;51.686;5.138;2023-04-15T09:20:11;10.05;;;5.05;;
77061;SDS011;65989;51.686;5.138;2023-04-15T09:22:38;9.32;;;5.00;;
77061;SDS011;65989;51.686;5.138;2023-04-15T09:25:26;10.98;;;4.97;;
77061;SDS011;65989;51.686;5.138;2023-04-15T09:28:01;10.10;;;4.77;;
77061;SDS011;65989;51.686;5.138;2023-04-15T09:30:27;6.90;;;3.75;;
77061;SDS011;65989;51.686;5.138;2023-04-15T09:32:59;11.52;;;4.63;;
77061;SDS011;65989;51.686;5.138;2023-04-15T09:35:26;8.23;;;4.28;;
77061;SDS011;65989;51.686;5.138;2023-04-15T09:37:53;10.73;;;4.78;;
77061;SDS011;65989;51.686;5.138;2023-04-15T09:40:33;11.37;;;4.60;;
77061;SDS011;65989;51.686;5.138;2023-04-15T09:43:00;9.45;;;4.63;;
77061;SDS011;65989;51.686;5.138;2023-04-15T09:45:27;8.05;;;4.10;;
77061;SDS011;65989;51.686;5.138;2023-04-15T09:47:53;8.45;;;4.05;;
77061;SDS011;65989;51.686;5.138;2023-04-15T09:50:18;9.80;;;4.33;;
77061;SDS011;65989;51.686;5.138;2023-04-15T09:52:45;8.80;;;4.78;;
77061;SDS011;65989;51.686;5.138;2023-04-15T09:55:11;8.63;;;4.10;;
77061;SDS011;65989;51.686;5.138;2023-04-15T09:57:37;6.27;;;3.43;;
77061;SDS011;65989;51.686;5.138;2023-04-15T10:00:05;7.75;;;3.55;;
77061;SDS011;65989;51.686;5.138;2023-04-15T10:02:33;7.65;;;3.42;;
77061;SDS011;65989;51.686;5.138;2023-04-15T10:05:00;9.18;;;4.22;;
77061;SDS011;65989;51.686;5.138;2023-04-15T10:07:26;9.25;;;4.60;;
77061;SDS011;65989;51.686;5.138;2023-04-15T10:09:52;9.73;;;3.63;;
77061;SDS011;65989;51.686;5.138;2023-04-15T10:12:18;7.95;;;3.50;;
77061;SDS011;65989;51.686;5.138;2023-04-15T10:14:44;7.55;;;2.78;;
77061;SDS011;65989;51.686;5.138;2023-04-15T10:17:17;6.10;;;3.17;;
77061;SDS011;65989;51.686;5.138;2023-04-15T10:19:46;6.20;;;3.40;;
77061;SDS011;65989;51.686;5.138;2023-04-15T10:22:13;7.53;;;3.78;;
77061;SDS011;65989;51.686;5.138;2023-04-15T10:24:39;6.20;;;3.05;;
77061;SDS011;65989;51.686;5.138;2023-04-15T10:27:05;6.20;;;2.20;;
77061;SDS011;65989;51.686;5.138;2023-04-15T10:29:31;4.97;;;2.00;;
77061;SDS011;65989;51.686;5.138;2023-04-15T10:31:57;6.20;;;2.70;;
77061;SDS011;65989;51.686;5.138;2023-04-15T10:34:24;5.78;;;2.75;;
77061;SDS011;65989;51.686;5.138;2023-04-15T10:36:54;5.10;;;2.77;;
77061;SDS011;65989;51.686;5.138;2023-04-15T10:42:08;6.22;;;2.33;;
77061;SDS011;65989;51.686;5.138;2023-04-15T10:44:37;6.65;;;3.00;;
77061;SDS011;65989;51.686;5.138;2023-04-15T10:47:21;6.32;;;2.80;;
77061;SDS011;65989;51.686;5.138;2023-04-15T10:49:47;5.33;;;2.60;;
77061;SDS011;65989;51.686;5.138;2023-04-15T10:52:14;6.70;;;2.90;;
77061;SDS011;65989;51.686;5.138;2023-04-15T10:54:41;5.93;;;2.80;;
77061;SDS011;65989;51.686;5.138;2023-04-15T10:57:13;6.07;;;2.60;;
77061;SDS011;65989;51.686;5.138;2023-04-15T11:02:38;5.55;;;2.60;;
77061;SDS011;65989;51.686;5.138;2023-04-15T11:05:04;6.20;;;2.92;;
77061;SDS011;65989;51.686;5.138;2023-04-15T11:12:46;6.63;;;2.80;;
77061;SDS011;65989;51.686;5.138;2023-04-15T11:15:35;8.10;;;3.20;;
77061;SDS011;65989;51.686;5.138;2023-04-15T11:18:11;6.85;;;3.10;;
77061;SDS011;65989;51.686;5.138;2023-04-15T11:20:44;5.70;;;3.00;;
77061;SDS011;65989;51.686;5.138;2023-04-15T11:23:11;7.57;;;3.33;;
77061;SDS011;65989;51.686;5.138;2023-04-15T11:25:37;5.30;;;2.67;;
77061;SDS011;65989;51.686;5.138;2023-04-15T11:28:03;4.67;;;2.70;;
77061;SDS011;65989;51.686;5.138;2023-04-15T11:30:29;6.88;;;3.17;;
77061;SDS011;65989;51.686;5.138;2023-04-15T11:32:59;6.07;;;3.30;;
77061;SDS011;65989;51.686;5.138;2023-04-15T11:35:26;5.03;;;2.58;;
77061;SDS011;65989;51.686;5.138;2023-04-15T11:37:52;6.70;;;3.00;;
77061;SDS011;65989;51.686;5.138;2023-04-15T11:40:22;7.05;;;2.88;;
77061;SDS011;65989;51.686;5.138;2023-04-15T11:45:46;6.10;;;2.92;;
77061;SDS011;65989;51.686;5.138;2023-04-15T11:48:28;6.25;;;2.95;;
77061;SDS011;65989;51.686;5.138;2023-04-15T11:50:59;5.93;;;2.80;;
77061;SDS011;65989;51.686;5.138;2023-04-15T11:56:07;4.85;;;2.20;;
77061;SDS011;65989;51.686;5.138;2023-04-15T11:58:35;5.10;;;2.42;;
77061;SDS011;65989;51.686;5.138;2023-04-15T12:01:02;5.93;;;2.67;;
77061;SDS011;65989;51.686;5.138;2023-04-15T12:03:29;5.70;;;2.30;;
77061;SDS011;65989;51.686;5.138;2023-04-15T12:06:22;4.18;;;2.38;;
77061;SDS011;65989;51.686;5.138;2023-04-15T12:13:55;4.95;;;2.60;;
77061;SDS011;65989;51.686;5.138;2023-04-15T12:16:23;5.73;;;2.80;;
77061;SDS011;65989;51.686;5.138;2023-04-15T12:18:52;5.43;;;2.47;;
77061;SDS011;65989;51.686;5.138;2023-04-15T12:21:23;5.85;;;2.60;;
77061;SDS011;65989;51.686;5.138;2023-04-15T12:29:27;4.77;;;2.50;;
77061;SDS011;65989;51.686;5.138;2023-04-15T12:31:54;6.03;;;2.60;;
77061;SDS011;65989;51.686;5.138;2023-04-15T12:34:25;5.72;;;3.00;;
77061;SDS011;65989;51.686;5.138;2023-04-15T12:36:52;5.70;;;2.70;;
77061;SDS011;65989;51.686;5.138;2023-04-15T12:39:22;6.78;;;2.70;;
77061;SDS011;65989;51.686;5.138;2023-04-15T12:41:49;6.40;;;3.27;;
77061;SDS011;65989;51.686;5.138;2023-04-15T12:44:14;6.20;;;3.00;;
77061;SDS011;65989;51.686;5.138;2023-04-15T12:46:39;7.57;;;2.70;;
77061;SDS011;65989;51.686;5.138;2023-04-15T12:49:05;9.37;;;3.00;;
77061;SDS011;65989;51.686;5.138;2023-04-15T12:51:31;5.37;;;2.50;;
77061;SDS011;65989;51.686;5.138;2023-04-15T12:53:56;4.60;;;2.00;;
77061;SDS011;65989;51.686;5.138;2023-04-15T12:56:22;4.07;;;1.80;;
77061;SDS011;65989;51.686;5.138;2023-04-15T12:58:48;5.07;;;2.33;;
77061;SDS011;65989;51.686;5.138;2023-04-15T13:01:13;4.40;;;2.20;;
77061;SDS011;65989;51.686;5.138;2023-04-15T13:03:39;4.60;;;2.40;;
77061;SDS011;65989;51.686;5.138;2023-04-15T13:06:04;4.27;;;2.27;;
77061;SDS011;65989;51.686;5.138;2023-04-15T13:08:30;4.30;;;2.30;;
77061;SDS011;65989;51.686;5.138;2023-04-15T13:10:56;5.87;;;2.50;;
77061;SDS011;65989;51.686;5.138;2023-04-15T13:13:21;4.20;;;2.30;;
77061;SDS011;65989;51.686;5.138;2023-04-15T13:15:47;4.77;;;2.40;;
77061;SDS011;65989;51.686;5.138;2023-04-15T13:18:12;5.13;;;2.10;;
77061;SDS011;65989;51.686;5.138;2023-04-15T13:20:38;6.57;;;2.40;;
77061;SDS011;65989;51.686;5.138;2023-04-15T13:23:03;5.05;;;2.35;;
77061;SDS011;65989;51.686;5.138;2023-04-15T13:25:29;6.33;;;2.50;;
77061;SDS011;65989;51.686;5.138;2023-04-15T13:27:54;3.60;;;2.10;;
77061;SDS011;65989;51.686;5.138;2023-04-15T13:30:21;5.93;;;2.37;;
77061;SDS011;65989;51.686;5.138;2023-04-15T13:32:47;4.35;;;2.13;;
77061;SDS011;65989;51.686;5.138;2023-04-15T13:35:13;5.20;;;2.40;;
77061;SDS011;65989;51.686;5.138;2023-04-15T13:37:39;4.85;;;2.40;;
77061;SDS011;65989;51.686;5.138;2023-04-15T13:40:05;5.43;;;2.25;;
77061;SDS011;65989;51.686;5.138;2023-04-15T13:42:31;6.63;;;2.60;;
77061;SDS011;65989;51.686;5.138;2023-04-15T13:44:57;6.93;;;2.25;;
77061;SDS011;65989;51.686;5.138;2023-04-15T13:47:22;4.50;;;2.00;;
77061;SDS011;65989;51.686;5.138;2023-04-15T13:49:48;4.97;;;2.20;;
77061;SDS011;65989;51.686;5.138;2023-04-15T13:52:13;4.75;;;2.22;;
77061;SDS011;65989;51.686;5.138;2023-04-15T13:54:39;5.07;;;2.20;;
77061;SDS011;65989;51.686;5.138;2023-04-15T13:57:04;6.73;;;2.53;;
77061;SDS011;65989;51.686;5.138;2023-04-15T13:59:31;6.00;;;2.67;;
77061;SDS011;65989;51.686;5.138;2023-04-15T14:01:58;6.80;;;2.15;;
77061;SDS011;65989;51.686;5.138;2023-04-15T14:04:23;6.37;;;2.67;;
77061;SDS011;65989;51.686;5.138;2023-04-15T14:06:49;9.27;;;3.23;;
77061;SDS011;65989;51.686;5.138;2023-04-15T14:09:15;6.32;;;2.70;;
77061;SDS011;65989;51.686;5.138;2023-04-15T14:11:40;5.53;;;2.40;;
77061;SDS011;65989;51.686;5.138;2023-04-15T14:14:06;6.28;;;2.30;;
77061;SDS011;65989;51.686;5.138;2023-04-15T14:16:32;7.60;;;3.10;;
77061;SDS011;65989;51.686;5.138;2023-04-15T14:18:57;6.25;;;3.33;;
77061;SDS011;65989;51.686;5.138;2023-04-15T14:21:23;5.90;;;2.70;;
77061;SDS011;65989;51.686;5.138;2023-04-15T14:23:50;6.20;;;3.00;;
77061;SDS011;65989;51.686;5.138;2023-04-15T14:26:15;5.23;;;2.50;;
77061;SDS011;65989;51.686;5.138;2023-04-15T14:28:41;7.80;;;2.83;;
77061;SDS011;65989;51.686;5.138;2023-04-15T14:31:08;4.90;;;2.23;;
77061;SDS011;65989;51.686;5.138;2023-04-15T14:33:34;6.65;;;2.65;;
77061;SDS011;65989;51.686;5.138;2023-04-15T14:35:59;6.73;;;2.53;;
77061;SDS011;65989;51.686;5.138;2023-04-15T14:38:25;5.77;;;2.30;;
77061;SDS011;65989;51.686;5.138;2023-04-15T14:40:50;5.20;;;2.10;;
77061;SDS011;65989;51.686;5.138;2023-04-15T14:43:15;5.57;;;1.73;;
77061;SDS011;65989;51.686;5.138;2023-04-15T14:45:41;4.80;;;1.80;;
77061;SDS011;65989;51.686;5.138;2023-04-15T14:48:06;4.33;;;1.60;;
77061;SDS011;65989;51.686;5.138;2023-04-15T14:50:34;4.43;;;1.80;;
77061;SDS011;65989;51.686;5.138;2023-04-15T14:52:59;3.63;;;1.60;;
77061;SDS011;65989;51.686;5.138;2023-04-15T14:55:25;3.83;;;1.73;;
77061;SDS011;65989;51.686;5.138;2023-04-15T14:57:50;3.03;;;1.50;;
77061;SDS011;65989;51.686;5.138;2023-04-15T15:00:16;4.23;;;1.80;;
77061;SDS011;65989;51.686;5.138;2023-04-15T15:02:41;8.65;;;1.98;;